createdAt,value
2018-07-22T00:00:10.065Z,95343.83
2018-07-22T00:02:40.453Z,95347.29
2018-07-22T00:05:09.841Z,95346.30
2018-07-22T00:07:39.564Z,95342.52
2018-07-22T00:10:23.644Z,95346.08
2018-07-22T00:12:53.032Z,95343.19
2018-07-22T00:15:22.669Z,95342.19
2018-07-22T00:17:51.985Z,95339.18
2018-07-22T00:20:21.335Z,95340.69
2018-07-22T00:22:50.681Z,95334.80
2018-07-22T00:25:20.163Z,95332.09
2018-07-22T00:27:49.605Z,95340.73
2018-07-22T00:30:18.961Z,95334.80
2018-07-22T00:32:48.359Z,95329.13
2018-07-22T00:35:17.973Z,95333.59
2018-07-22T00:37:47.367Z,95331.59
2018-07-22T00:40:16.787Z,95326.59
2018-07-22T00:42:46.116Z,95321.33
2018-07-22T00:45:15.468Z,95323.17
2018-07-22T00:47:44.820Z,95317.77
2018-07-22T00:50:14.201Z,95319.93
2018-07-22T00:52:43.586Z,95315.12
2018-07-22T00:55:12.934Z,95318.89
2018-07-22T00:57:42.305Z,95324.88
2018-07-22T01:00:11.684Z,95319.13
2018-07-22T01:02:41.036Z,95316.15
2018-07-22T01:05:10.393Z,95319.73
2018-07-22T01:07:39.765Z,95315.08
2018-07-22T01:10:09.372Z,95313.37
2018-07-22T01:12:38.738Z,95316.92
2018-07-22T01:15:08.046Z,95312.38
2018-07-22T01:17:37.445Z,95308.47
2018-07-22T01:20:07.958Z,95309.42
2018-07-22T01:22:37.343Z,95308.73
2018-07-22T01:25:06.712Z,95300.38
2018-07-22T01:27:36.693Z,95305.14
2018-07-22T01:30:08.528Z,95302.34
2018-07-22T01:32:37.853Z,95301.48
2018-07-22T01:35:07.514Z,95303.92
2018-07-22T01:37:37.167Z,95297.25
2018-07-22T01:40:06.778Z,95290.10
2018-07-22T01:42:36.333Z,95295.64
2018-07-22T01:45:05.707Z,95296.27
2018-07-22T01:47:36.001Z,95298.74
2018-07-22T01:50:05.802Z,95288.66
2018-07-22T01:52:35.487Z,95298.19
2018-07-22T01:55:04.965Z,95296.94
2018-07-22T01:57:34.439Z,95293.74
2018-07-22T02:00:03.866Z,95297.30
2018-07-22T02:02:33.217Z,95300.90
2018-07-22T02:05:02.564Z,95301.77
2018-07-22T02:07:31.952Z,95302.34
2018-07-22T02:10:01.237Z,95300.33
2018-07-22T02:12:30.596Z,95303.92
2018-07-22T02:14:59.983Z,95298.98
2018-07-22T02:17:29.406Z,95302.03
2018-07-22T02:19:58.779Z,95301.67
2018-07-22T02:22:28.171Z,95296.32
2018-07-22T02:24:57.523Z,95298.52
2018-07-22T02:27:26.898Z,95298.74
2018-07-22T02:29:56.243Z,95293.88
2018-07-22T02:32:25.336Z,95277.09
2018-07-22T02:34:54.633Z,95298.52
2018-07-22T02:37:23.949Z,95294.15
2018-07-22T02:39:53.289Z,95291.27
2018-07-22T02:42:22.647Z,95296.05
2018-07-22T02:44:51.971Z,95296.32
2018-07-22T02:47:21.327Z,95287.94
2018-07-22T02:49:50.750Z,95286.42
2018-07-22T02:52:20.103Z,95295.14
2018-07-22T02:54:49.490Z,95296.75
2018-07-22T02:57:18.881Z,95292.84
2018-07-22T02:59:48.519Z,95295.70
2018-07-22T03:02:17.905Z,95293.95
2018-07-22T03:04:47.321Z,95299.71
2018-07-22T03:07:16.992Z,95298.28
2018-07-22T03:09:46.336Z,95294.99
2018-07-22T03:12:15.744Z,95291.80
2018-07-22T03:14:45.137Z,95288.55
2018-07-22T03:17:14.602Z,95287.08
2018-07-22T03:19:44.458Z,95293.83
2018-07-22T03:22:13.859Z,95291.27
2018-07-22T03:24:43.147Z,95297.87
2018-07-22T03:27:18.744Z,95291.50
2018-07-22T03:29:48.091Z,95294.14
2018-07-22T03:32:17.534Z,95299.73
2018-07-22T03:34:47.009Z,95295.73
2018-07-22T03:37:16.373Z,95294.17
2018-07-22T03:39:45.749Z,95295.33
2018-07-22T03:42:15.089Z,95300.42
2018-07-22T03:44:44.450Z,95307.67
2018-07-22T03:47:13.818Z,95301.38
2018-07-22T03:49:43.165Z,95315.98
2018-07-22T03:52:12.502Z,95311.41
2018-07-22T03:54:41.841Z,95313.66
2018-07-22T03:57:11.257Z,95316.94
2018-07-22T03:59:40.612Z,95325.81
2018-07-22T04:02:09.981Z,95326.72
2018-07-22T04:04:39.304Z,95325.62
2018-07-22T04:07:08.710Z,95325.04
2018-07-22T04:09:38.050Z,95330.31
2018-07-22T04:12:07.401Z,95325.27
2018-07-22T04:14:36.722Z,95324.42
2018-07-22T04:17:06.418Z,95327.38
2018-07-22T04:19:35.791Z,95333.06
2018-07-22T04:22:05.161Z,95332.52
2018-07-22T04:24:34.690Z,95326.41
2018-07-22T04:27:04.138Z,95331.13
2018-07-22T04:29:33.452Z,95329.87
2018-07-22T04:32:05.060Z,95333.83
2018-07-22T04:34:34.478Z,95329.37
2018-07-22T04:37:03.845Z,95325.27
2018-07-22T04:39:33.203Z,95336.48
2018-07-22T04:42:02.554Z,95331.81
2018-07-22T04:44:31.935Z,95333.56
2018-07-22T04:47:01.317Z,95334.77
2018-07-22T04:49:30.646Z,95329.06
2018-07-22T04:51:59.982Z,95330.67
2018-07-22T04:54:29.366Z,95333.97
2018-07-22T04:56:58.694Z,95340.48
2018-07-22T04:59:28.030Z,95342.88
2018-07-22T05:01:57.392Z,95343.19
2018-07-22T05:04:26.759Z,95348.73
2018-07-22T05:06:56.115Z,95345.81
2018-07-22T05:09:25.474Z,95350.98
2018-07-22T05:11:54.794Z,95347.12
2018-07-22T05:14:24.139Z,95350.22
2018-07-22T05:16:53.531Z,95354.72
2018-07-22T05:19:22.869Z,95353.88
2018-07-22T05:21:52.299Z,95352.52
2018-07-22T05:24:21.642Z,95357.78
2018-07-22T05:26:51.018Z,95357.20
2018-07-22T05:29:20.464Z,95356.08
2018-07-22T05:31:49.885Z,95358.73
2018-07-22T05:34:19.326Z,95362.55
2018-07-22T05:36:48.719Z,95359.13
2018-07-22T05:39:18.091Z,95358.64
2018-07-22T05:41:47.467Z,95362.42
2018-07-22T05:44:16.832Z,95368.95
2018-07-22T05:46:46.167Z,95369.94
2018-07-22T05:49:15.477Z,95373.23
2018-07-22T05:51:44.836Z,95375.39
2018-07-22T05:54:14.267Z,95375.22
2018-07-22T05:56:43.943Z,95380.48
2018-07-22T05:59:13.304Z,95378.14
2018-07-22T06:01:42.745Z,95383.99
2018-07-22T06:04:11.854Z,95387.10
2018-07-22T06:06:40.933Z,95385.84
2018-07-22T06:09:11.145Z,95387.02
2018-07-22T06:11:40.592Z,95389.54
2018-07-22T06:14:09.921Z,95391.75
2018-07-22T06:16:39.274Z,95391.55
2018-07-22T06:19:08.587Z,95391.55
2018-07-22T06:21:37.983Z,95393.19
2018-07-22T06:24:07.718Z,95400.30
2018-07-22T06:26:37.164Z,95400.11
2018-07-22T06:29:07.074Z,95402.73
2018-07-22T06:31:37.250Z,95404.76
2018-07-22T06:34:07.295Z,95405.89
2018-07-22T06:36:36.719Z,95405.04
2018-07-22T06:39:11.093Z,95405.89
2018-07-22T06:41:41.097Z,95409.55
2018-07-22T06:44:10.840Z,95402.50
2018-07-22T06:46:40.243Z,95408.81
2018-07-22T06:49:09.588Z,95408.19
2018-07-22T06:51:39.049Z,95409.81
2018-07-22T06:54:08.484Z,95412.29
2018-07-22T06:56:37.941Z,95413.27
2018-07-22T06:59:07.610Z,95405.25
2018-07-22T07:01:37.106Z,95409.85
2018-07-22T07:04:06.497Z,95405.97
2018-07-22T07:06:35.929Z,95407.64
2018-07-22T07:09:09.257Z,95411.92
2018-07-22T07:11:38.999Z,95413.55
2018-07-22T07:14:08.671Z,95413.91
2018-07-22T07:16:38.453Z,95411.52
2018-07-22T07:19:07.932Z,95419.12
2018-07-22T07:21:37.287Z,95420.06
2018-07-22T07:24:06.721Z,95417.81
2018-07-22T07:26:36.172Z,95416.73
2018-07-22T07:29:05.562Z,95421.13
2018-07-22T07:31:34.993Z,95420.52
2018-07-22T07:34:04.379Z,95414.88
2018-07-22T07:36:33.765Z,95416.73
2018-07-22T07:39:03.111Z,95421.06
2018-07-22T07:41:32.465Z,95420.42
2018-07-22T07:44:01.935Z,95419.12
2018-07-22T07:46:31.259Z,95416.27
2018-07-22T07:49:00.606Z,95414.16
2018-07-22T07:51:30.026Z,95420.87
2018-07-22T07:53:59.376Z,95416.23
2018-07-22T07:56:28.793Z,95414.56
2018-07-22T07:58:58.455Z,95419.42
2018-07-22T08:01:27.511Z,95416.33
2018-07-22T08:03:56.902Z,95418.41
2018-07-22T08:06:26.615Z,95422.06
2018-07-22T08:08:55.964Z,95422.56
2018-07-22T08:11:25.389Z,95422.96
2018-07-22T08:13:55.951Z,95425.57
2018-07-22T08:16:25.368Z,95428.81
2018-07-22T08:18:56.439Z,95426.61
2018-07-22T08:21:24.447Z,95430.22
2018-07-22T08:23:53.784Z,95427.66
2018-07-22T08:26:24.271Z,95428.51
2018-07-22T08:29:28.559Z,95424.12
2018-07-22T08:31:58.299Z,95428.46
2018-07-22T08:34:27.652Z,95424.95
2018-07-22T08:36:56.768Z,95425.85
2018-07-22T08:39:27.530Z,95423.59
2018-07-22T08:41:57.433Z,95423.18
2018-07-22T08:44:26.818Z,95430.61
2018-07-22T08:46:56.285Z,95431.02
2018-07-22T08:49:25.726Z,95438.59
2018-07-22T08:51:55.244Z,95434.48
2018-07-22T08:54:24.639Z,95439.39
2018-07-22T08:56:54.109Z,95441.16
2018-07-22T08:59:23.554Z,95438.18
2018-07-22T09:01:53.121Z,95442.63
2018-07-22T09:04:22.565Z,95441.54
2018-07-22T09:06:52.178Z,95443.78
2018-07-22T09:09:22.645Z,95437.22
2018-07-22T09:11:52.145Z,95447.18
2018-07-22T09:14:23.558Z,95443.34
2018-07-22T09:16:52.934Z,95449.53
2018-07-22T09:19:22.308Z,95452.73
2018-07-22T09:21:52.069Z,95446.88
2018-07-22T09:24:21.548Z,95438.80
2018-07-22T09:26:50.933Z,95451.05
2018-07-22T09:29:20.461Z,95451.37
2018-07-22T09:31:50.101Z,95461.30
2018-07-22T09:34:19.507Z,95455.39
2018-07-22T09:36:48.913Z,95451.88
2018-07-22T09:39:21.983Z,95449.80
2018-07-22T09:41:51.388Z,95446.20
2018-07-22T09:44:21.002Z,95455.53
2018-07-22T09:46:50.609Z,95453.14
2018-07-22T09:49:20.215Z,95454.76
2018-07-22T09:51:49.433Z,95451.48
2018-07-22T09:54:19.106Z,95454.00
2018-07-22T09:56:48.511Z,95452.29
2018-07-22T09:59:18.040Z,95449.85
2018-07-22T10:01:47.695Z,95448.86
2018-07-22T10:04:17.305Z,95446.23
2018-07-22T10:06:46.652Z,95451.37
2018-07-22T10:09:16.043Z,95455.20
2018-07-22T10:11:45.534Z,95457.98
2018-07-22T10:14:15.080Z,95458.14
2018-07-22T10:16:44.441Z,95454.55
2018-07-22T10:19:13.789Z,95454.66
2018-07-22T10:21:43.292Z,95458.48
2018-07-22T10:24:12.658Z,95456.14
2018-07-22T10:26:42.047Z,95460.45
2018-07-22T10:29:11.389Z,95460.15
2018-07-22T10:31:40.791Z,95463.54
2018-07-22T10:34:10.168Z,95465.20
2018-07-22T10:36:39.534Z,95475.38
2018-07-22T10:39:11.283Z,95470.52
2018-07-22T10:41:40.785Z,95474.97
2018-07-22T10:44:10.051Z,95472.34
2018-07-22T10:46:39.403Z,95477.02
2018-07-22T10:49:08.807Z,95472.50
2018-07-22T10:51:38.548Z,95470.34
2018-07-22T10:54:08.043Z,95472.20
2018-07-22T10:56:37.425Z,95476.05
2018-07-22T10:59:06.861Z,95473.70
2018-07-22T11:01:36.407Z,95475.64
2018-07-22T11:04:05.792Z,95476.68
2018-07-22T11:06:35.507Z,95476.60
2018-07-22T11:09:07.602Z,95485.62
2018-07-22T11:11:37.102Z,95478.36
2018-07-22T11:14:06.673Z,95474.77
2018-07-22T11:16:36.967Z,95482.06
2018-07-22T11:19:06.727Z,95473.95
2018-07-22T11:21:42.871Z,95472.06
2018-07-22T11:24:12.235Z,95465.22
2018-07-22T11:26:41.631Z,95470.00
2018-07-22T11:29:11.108Z,95473.70
2018-07-22T11:31:40.694Z,95472.12
2018-07-22T11:34:10.097Z,95476.61
2018-07-22T11:36:39.457Z,95474.91
2018-07-22T11:39:10.845Z,95471.02
2018-07-22T11:41:41.200Z,95471.56
2018-07-22T11:44:10.865Z,95472.91
2018-07-22T11:46:40.592Z,95469.22
2018-07-22T11:49:10.056Z,95468.52
2018-07-22T11:51:39.865Z,95474.01
2018-07-22T11:54:09.225Z,95475.81
2018-07-22T11:56:38.593Z,95478.38
2018-07-22T11:59:07.981Z,95480.95
2018-07-22T12:01:37.336Z,95475.00
2018-07-22T12:04:07.127Z,95475.13
2018-07-22T12:06:42.150Z,95473.33
2018-07-22T12:09:12.772Z,95474.09
2018-07-22T12:11:42.496Z,95474.83
2018-07-22T12:14:11.869Z,95477.17
2018-07-22T12:16:41.257Z,95474.83
2018-07-22T12:19:10.758Z,95471.89
2018-07-22T12:21:40.455Z,95474.52
2018-07-22T12:24:09.848Z,95474.41
2018-07-22T12:26:39.235Z,95477.02
2018-07-22T12:29:08.867Z,95473.15
2018-07-22T12:31:38.353Z,95480.81
2018-07-22T12:34:07.774Z,95483.57
2018-07-22T12:36:38.225Z,95489.28
2018-07-22T12:39:11.085Z,95494.95
2018-07-22T12:41:40.558Z,95501.05
2018-07-22T12:44:09.909Z,95496.23
2018-07-22T12:46:39.360Z,95492.09
2018-07-22T12:49:08.954Z,95500.20
2018-07-22T12:51:38.444Z,95492.22
2018-07-22T12:54:07.820Z,95488.13
2018-07-22T12:56:37.281Z,95488.62
2018-07-22T12:59:06.764Z,95487.70
2018-07-22T13:01:36.253Z,95489.87
2018-07-22T13:04:06.097Z,95485.80
2018-07-22T13:06:35.421Z,95488.33
2018-07-22T13:09:07.594Z,95484.16
2018-07-22T13:11:36.978Z,95484.39
2018-07-22T13:14:07.136Z,95485.95
2018-07-22T13:16:36.659Z,95485.28
2018-07-22T13:19:06.054Z,95489.73
2018-07-22T13:21:35.401Z,95492.02
2018-07-22T13:24:04.786Z,95496.17
2018-07-22T13:26:34.187Z,95499.13
2018-07-22T13:29:03.566Z,95496.42
2018-07-22T13:31:33.111Z,95501.70
2018-07-22T13:34:02.677Z,95504.89
2018-07-22T13:36:32.046Z,95503.42
2018-07-22T13:39:01.498Z,95500.39
2018-07-22T13:41:30.861Z,95501.58
2018-07-22T13:44:00.377Z,95500.80
2018-07-22T13:46:29.761Z,95501.45
2018-07-22T13:49:00.437Z,95502.52
2018-07-22T13:51:29.761Z,95503.91
2018-07-22T13:53:59.169Z,95499.13
2018-07-22T13:56:28.564Z,95498.65
2018-07-22T13:58:57.925Z,95496.16
2018-07-22T14:01:27.360Z,95499.73
2018-07-22T14:03:56.866Z,95494.92
2018-07-22T14:06:26.265Z,95497.09
2018-07-22T14:08:55.802Z,95493.13
2018-07-22T14:11:25.187Z,95500.05
2018-07-22T14:13:54.885Z,95498.75
2018-07-22T14:16:24.372Z,95502.70
2018-07-22T14:18:53.714Z,95505.09
2018-07-22T14:21:23.147Z,95497.88
2018-07-22T14:23:52.554Z,95500.09
2018-07-22T14:26:23.964Z,95498.86
2018-07-22T14:28:53.329Z,95499.50
2018-07-22T14:31:22.704Z,95499.62
2018-07-22T14:33:52.074Z,95489.50
2018-07-22T14:36:21.561Z,95494.09
2018-07-22T14:38:52.027Z,95501.47
2018-07-22T14:41:27.886Z,95506.39
2018-07-22T14:43:57.299Z,95499.13
2018-07-22T14:46:26.826Z,95502.16
2018-07-22T14:48:56.725Z,95502.44
2018-07-22T14:51:26.184Z,95506.88
2018-07-22T14:53:55.717Z,95500.59
2018-07-22T14:56:25.183Z,95503.25
2018-07-22T14:58:55.037Z,95503.99
2018-07-22T15:01:24.526Z,95508.92
2018-07-22T15:03:54.007Z,95505.02
2018-07-22T15:06:23.545Z,95496.23
2018-07-22T15:08:53.001Z,95501.77
2018-07-22T15:11:23.709Z,95502.78
2018-07-22T15:13:53.416Z,95507.32
2018-07-22T15:16:22.921Z,95495.56
2018-07-22T15:18:52.721Z,95499.28
2018-07-22T15:21:22.279Z,95505.31
2018-07-22T15:23:51.746Z,95506.28
2018-07-22T15:26:21.644Z,95501.72
2018-07-22T15:28:52.284Z,95499.43
2018-07-22T15:31:22.403Z,95503.75
2018-07-22T15:33:52.615Z,95501.98
2018-07-22T15:36:23.436Z,95500.38
2018-07-22T15:38:53.576Z,95500.11
2018-07-22T15:41:23.084Z,95496.13
2018-07-22T15:43:52.729Z,95495.22
2018-07-22T15:46:22.630Z,95496.67
2018-07-22T15:48:52.155Z,95490.59
2018-07-22T15:51:21.704Z,95493.03
2018-07-22T15:53:52.649Z,95494.88
2018-07-22T15:56:22.270Z,95493.57
2018-07-22T15:58:51.812Z,95489.78
2018-07-22T16:01:21.397Z,95491.41
2018-07-22T16:03:50.935Z,95492.22
2018-07-22T16:06:21.214Z,95493.30
2018-07-22T16:08:51.925Z,95487.34
2018-07-22T16:11:21.778Z,95489.97
2018-07-22T16:13:52.653Z,95491.72
2018-07-22T16:16:22.301Z,95487.13
2018-07-22T16:18:52.033Z,95484.59
2018-07-22T16:21:21.739Z,95486.22
2018-07-22T16:23:51.505Z,95494.43
2018-07-22T16:26:21.022Z,95488.47
2018-07-22T16:28:50.525Z,95484.10
2018-07-22T16:31:20.378Z,95486.81
2018-07-22T16:33:49.859Z,95493.21
2018-07-22T16:36:20.240Z,95492.56
2018-07-22T16:38:49.773Z,95497.84
2018-07-22T16:41:19.380Z,95488.09
2018-07-22T16:43:48.826Z,95490.17
2018-07-22T16:46:18.484Z,95496.81
2018-07-22T16:48:47.864Z,95497.35
2018-07-22T16:51:17.250Z,95499.28
2018-07-22T16:53:46.831Z,95498.84
2018-07-22T16:56:16.267Z,95501.28
2018-07-22T16:58:46.835Z,95495.69
2018-07-22T17:01:16.238Z,95502.80
2018-07-22T17:03:45.698Z,95507.31
2018-07-22T17:06:15.080Z,95509.44
2018-07-22T17:08:44.594Z,95511.16
2018-07-22T17:11:14.003Z,95511.52
2018-07-22T17:13:43.408Z,95512.73
2018-07-22T17:16:12.783Z,95505.02
2018-07-22T17:18:42.253Z,95508.81
2018-07-22T17:21:11.625Z,95506.87
2018-07-22T17:23:41.054Z,95504.94
2018-07-22T17:26:10.381Z,95506.87
2018-07-22T17:28:39.820Z,95501.86
2018-07-22T17:31:09.447Z,95504.75
2018-07-22T17:33:38.778Z,95509.30
2018-07-22T17:36:08.123Z,95511.47
2018-07-22T17:38:37.583Z,95512.06
2018-07-22T17:41:08.096Z,95513.49
2018-07-22T17:43:37.560Z,95513.72
2018-07-22T17:46:06.969Z,95510.26
2018-07-22T17:48:36.776Z,95507.18
2018-07-22T17:51:06.474Z,95513.89
2018-07-22T17:53:35.881Z,95510.38
2018-07-22T17:56:06.202Z,95508.08
2018-07-22T17:58:36.489Z,95510.47
2018-07-22T18:01:06.001Z,95509.63
2018-07-22T18:03:35.421Z,95513.09
2018-07-22T18:06:04.862Z,95512.55
2018-07-22T18:08:34.265Z,95509.98
2018-07-22T18:11:03.798Z,95515.89
2018-07-22T18:13:33.335Z,95514.30
2018-07-22T18:16:02.660Z,95520.80
2018-07-22T18:18:32.201Z,95516.15
2018-07-22T18:21:01.645Z,95522.86
2018-07-22T18:23:31.058Z,95520.75
2018-07-22T18:26:00.400Z,95524.35
2018-07-22T18:28:29.954Z,95531.38
2018-07-22T18:30:59.464Z,95526.25
2018-07-22T18:33:29.022Z,95528.22
2018-07-22T18:35:58.114Z,95523.00
2018-07-22T18:38:27.867Z,95525.25
2018-07-22T18:40:57.712Z,95528.77
2018-07-22T18:43:27.097Z,95526.65
2018-07-22T18:45:56.614Z,95526.41
2018-07-22T18:55:24.816Z,95533.30
2018-07-22T18:57:53.997Z,95532.53
2018-07-22T19:00:23.152Z,95537.58
2018-07-22T19:02:52.465Z,95532.32
2018-07-22T19:05:21.629Z,95539.08
2018-07-22T19:07:50.785Z,95552.10
2018-07-22T19:10:19.940Z,95548.78
2018-07-22T19:12:49.077Z,95550.35
2018-07-22T19:15:18.223Z,95556.07
2018-07-22T19:17:47.372Z,95561.71
2018-07-22T19:20:16.546Z,95564.27
2018-07-22T19:22:45.682Z,95568.28
2018-07-22T19:25:14.859Z,95572.34
2018-07-22T19:27:44.012Z,95580.99
2018-07-22T19:30:13.149Z,95586.05
2018-07-22T19:32:42.405Z,95587.09
2018-07-22T19:35:11.612Z,95589.56
2018-07-22T19:37:40.892Z,95593.58
2018-07-22T19:40:10.092Z,95600.27
2018-07-22T19:42:39.181Z,95610.30
2018-07-22T19:45:08.759Z,95606.75
2018-07-22T19:47:37.981Z,95609.73
2018-07-22T19:50:07.420Z,95606.13
2018-07-22T19:52:36.589Z,95603.44
2018-07-22T19:55:06.056Z,95608.34
2018-07-22T19:57:35.249Z,95608.61
2018-07-22T20:00:04.902Z,95607.61
2018-07-22T20:02:34.413Z,95613.78
2018-07-22T20:05:03.553Z,95617.58
2018-07-22T20:07:32.736Z,95606.80
2018-07-22T20:10:02.173Z,95614.52
2018-07-22T20:12:31.408Z,95610.31
2018-07-22T20:15:00.847Z,95610.58
2018-07-22T20:17:30.336Z,95617.92
2018-07-22T20:19:59.470Z,95619.04
2018-07-22T20:22:28.933Z,95621.75
2018-07-22T20:24:58.117Z,95619.09
2018-07-22T20:27:27.299Z,95618.55
2018-07-22T20:29:56.537Z,95620.82
2018-07-22T20:32:25.649Z,95619.47
2018-07-22T20:34:54.927Z,95621.17
2018-07-22T20:37:24.393Z,95627.55
2018-07-22T20:39:53.541Z,95629.74
2018-07-22T20:42:22.812Z,95628.13
2018-07-22T20:44:52.058Z,95629.28
2018-07-22T20:47:21.219Z,95630.36
2018-07-22T20:49:50.457Z,95630.12
2018-07-22T20:52:19.621Z,95625.53
2018-07-22T20:54:48.751Z,95625.53
2018-07-22T20:57:18.093Z,95627.73
2018-07-22T20:59:47.333Z,95628.34
2018-07-22T21:02:16.649Z,95626.25
2018-07-22T21:04:45.782Z,95626.72
2018-07-22T21:07:14.923Z,95624.33
2018-07-22T21:09:44.145Z,95625.67
2018-07-22T21:12:56.288Z,95626.28
2018-07-22T21:15:25.517Z,95623.92
2018-07-22T21:17:54.680Z,95626.39
2018-07-22T21:20:23.877Z,95629.67
2018-07-22T21:22:53.037Z,95626.97
2018-07-22T21:25:22.204Z,95628.86
2018-07-22T21:27:51.506Z,95628.32
2018-07-22T21:30:20.646Z,95624.54
2018-07-22T21:32:49.810Z,95624.84
2018-07-22T21:35:18.965Z,95629.67
2018-07-22T21:37:47.980Z,95631.02
2018-07-22T21:40:17.184Z,95632.44
2018-07-22T21:42:47.285Z,95633.45
2018-07-22T21:45:16.485Z,95636.97
2018-07-22T21:47:45.645Z,95635.66
2018-07-22T21:50:14.785Z,95637.20
2018-07-22T21:52:43.929Z,95638.31
2018-07-22T21:55:13.077Z,95636.16
2018-07-22T21:57:42.200Z,95639.91
2018-07-22T22:00:31.467Z,95634.80
2018-07-22T22:03:03.189Z,95636.66
2018-07-22T22:05:32.324Z,95642.47
2018-07-22T22:08:01.453Z,95640.05
2018-07-22T22:10:30.649Z,95637.84
2018-07-22T22:12:59.801Z,95642.95
2018-07-22T22:15:30.103Z,95643.79
2018-07-22T22:18:00.318Z,95642.91
2018-07-22T22:20:30.233Z,95647.81
2018-07-22T22:22:59.411Z,95640.24
2018-07-22T22:25:28.532Z,95647.57
2018-07-22T22:27:58.031Z,95648.62
2018-07-22T22:30:27.168Z,95648.66
2018-07-22T22:32:56.310Z,95651.39
2018-07-22T22:35:25.460Z,95649.80
2018-07-22T22:37:54.591Z,95649.30
2018-07-22T22:40:23.725Z,95652.50
2018-07-22T22:42:52.873Z,95650.88
2018-07-22T22:45:22.012Z,95649.02
2018-07-22T22:47:51.157Z,95652.53
2018-07-22T22:50:20.282Z,95648.72
2018-07-22T22:52:49.429Z,95649.50
2018-07-22T22:55:18.560Z,95646.53
2018-07-22T22:58:05.398Z,95638.35
2018-07-22T23:00:34.553Z,95646.42
2018-07-22T23:03:03.694Z,95632.10
2018-07-22T23:05:32.833Z,95635.92
2018-07-22T23:08:02.049Z,95638.11
2018-07-22T23:10:31.181Z,95635.95
2018-07-22T23:13:00.308Z,95633.80
2018-07-22T23:15:29.484Z,95636.49
2018-07-22T23:17:58.654Z,95637.07
2018-07-22T23:20:27.789Z,95640.05
2018-07-22T23:22:56.952Z,95637.68
2018-07-22T23:25:26.083Z,95637.68
2018-07-22T23:27:55.472Z,95639.33
2018-07-22T23:30:24.624Z,95642.84
2018-07-22T23:32:53.761Z,95648.48
2018-07-22T23:35:22.956Z,95643.75
2018-07-22T23:37:51.952Z,95643.75
2018-07-22T23:40:21.112Z,95643.99
2018-07-22T23:42:50.237Z,95642.34
2018-07-22T23:45:19.378Z,95641.63
2018-07-22T23:47:48.944Z,95641.63
2018-07-22T23:50:18.088Z,95634.60
2018-07-22T23:52:47.205Z,95632.98
2018-07-22T23:55:16.438Z,95634.06
2018-07-22T23:57:45.649Z,95634.09
